sensor_id;sensor_type;location;lat;lon;timestamp;P1;durP1;ratioP1;P2;durP2;ratioP2
72791;SDS011;60907;53.268;8.764;2022-08-03T00:01:48;4.20;;;3.35;;
72791;SDS011;60907;53.268;8.764;2022-08-03T00:04:14;5.53;;;3.00;;
72791;SDS011;60907;53.268;8.764;2022-08-03T00:06:39;6.22;;;3.08;;
72791;SDS011;60907;53.268;8.764;2022-08-03T00:09:05;5.68;;;3.20;;
72791;SDS011;60907;53.268;8.764;2022-08-03T00:11:31;5.80;;;3.10;;
72791;SDS011;60907;53.268;8.764;2022-08-03T00:13:57;6.07;;;2.90;;
72791;SDS011;60907;53.268;8.764;2022-08-03T00:16:22;5.65;;;3.00;;
72791;SDS011;60907;53.268;8.764;2022-08-03T00:18:51;3.72;;;3.20;;
72791;SDS011;60907;53.268;8.764;2022-08-03T00:21:16;5.80;;;2.88;;
72791;SDS011;60907;53.268;8.764;2022-08-03T00:23:42;4.30;;;3.25;;
72791;SDS011;60907;53.268;8.764;2022-08-03T00:26:07;3.80;;;3.00;;
72791;SDS011;60907;53.268;8.764;2022-08-03T00:28:33;6.03;;;3.42;;
72791;SDS011;60907;53.268;8.764;2022-08-03T00:30:58;3.45;;;2.90;;
72791;SDS011;60907;53.268;8.764;2022-08-03T00:33:24;6.00;;;3.07;;
72791;SDS011;60907;53.268;8.764;2022-08-03T00:35:50;4.45;;;2.80;;
72791;SDS011;60907;53.268;8.764;2022-08-03T00:38:15;5.07;;;2.83;;
72791;SDS011;60907;53.268;8.764;2022-08-03T00:40:41;8.57;;;2.78;;
72791;SDS011;60907;53.268;8.764;2022-08-03T00:43:07;5.63;;;3.50;;
72791;SDS011;60907;53.268;8.764;2022-08-03T00:45:33;3.45;;;3.03;;
72791;SDS011;60907;53.268;8.764;2022-08-03T00:48:03;5.75;;;2.95;;
72791;SDS011;60907;53.268;8.764;2022-08-03T00:50:31;4.32;;;3.08;;
72791;SDS011;60907;53.268;8.764;2022-08-03T00:52:59;4.97;;;3.10;;
72791;SDS011;60907;53.268;8.764;2022-08-03T00:55:27;3.90;;;2.80;;
72791;SDS011;60907;53.268;8.764;2022-08-03T00:57:53;3.92;;;2.40;;
72791;SDS011;60907;53.268;8.764;2022-08-03T01:00:20;3.47;;;2.80;;
72791;SDS011;60907;53.268;8.764;2022-08-03T01:02:50;5.43;;;2.70;;
72791;SDS011;60907;53.268;8.764;2022-08-03T01:05:16;7.05;;;3.30;;
72791;SDS011;60907;53.268;8.764;2022-08-03T01:18:24;5.18;;;3.35;;
72791;SDS011;60907;53.268;8.764;2022-08-03T01:21:20;5.47;;;3.60;;
72791;SDS011;60907;53.268;8.764;2022-08-03T01:23:56;4.03;;;3.10;;
72791;SDS011;60907;53.268;8.764;2022-08-03T01:31:32;8.90;;;3.33;;
72791;SDS011;60907;53.268;8.764;2022-08-03T01:34:06;3.72;;;3.17;;
72791;SDS011;60907;53.268;8.764;2022-08-03T01:36:35;5.22;;;3.53;;
72791;SDS011;60907;53.268;8.764;2022-08-03T01:39:04;6.93;;;4.20;;
72791;SDS011;60907;53.268;8.764;2022-08-03T01:41:35;4.50;;;3.30;;
72791;SDS011;60907;53.268;8.764;2022-08-03T01:44:05;6.07;;;3.63;;
72791;SDS011;60907;53.268;8.764;2022-08-03T01:46:32;6.00;;;3.78;;
72791;SDS011;60907;53.268;8.764;2022-08-03T01:48:58;7.65;;;3.63;;
72791;SDS011;60907;53.268;8.764;2022-08-03T01:51:25;4.55;;;3.55;;
72791;SDS011;60907;53.268;8.764;2022-08-03T01:53:51;4.95;;;2.92;;
72791;SDS011;60907;53.268;8.764;2022-08-03T01:56:19;5.95;;;3.67;;
72791;SDS011;60907;53.268;8.764;2022-08-03T01:58:47;6.45;;;3.00;;
72791;SDS011;60907;53.268;8.764;2022-08-03T02:01:14;4.07;;;3.10;;
72791;SDS011;60907;53.268;8.764;2022-08-03T02:03:40;4.78;;;3.50;;
72791;SDS011;60907;53.268;8.764;2022-08-03T02:08:33;5.43;;;3.13;;
72791;SDS011;60907;53.268;8.764;2022-08-03T02:10:59;4.05;;;3.50;;
72791;SDS011;60907;53.268;8.764;2022-08-03T02:13:26;5.07;;;3.80;;
72791;SDS011;60907;53.268;8.764;2022-08-03T02:15:53;5.20;;;3.75;;
72791;SDS011;60907;53.268;8.764;2022-08-03T02:18:20;4.60;;;3.80;;
72791;SDS011;60907;53.268;8.764;2022-08-03T02:20:46;4.20;;;3.42;;
72791;SDS011;60907;53.268;8.764;2022-08-03T02:23:15;5.32;;;3.45;;
72791;SDS011;60907;53.268;8.764;2022-08-03T02:25:43;4.22;;;3.50;;
72791;SDS011;60907;53.268;8.764;2022-08-03T02:28:11;7.43;;;3.35;;
72791;SDS011;60907;53.268;8.764;2022-08-03T02:30:41;4.20;;;3.10;;
72791;SDS011;60907;53.268;8.764;2022-08-03T02:33:10;4.65;;;3.40;;
72791;SDS011;60907;53.268;8.764;2022-08-03T02:35:37;5.75;;;3.33;;
72791;SDS011;60907;53.268;8.764;2022-08-03T02:38:04;4.57;;;3.63;;
72791;SDS011;60907;53.268;8.764;2022-08-03T02:40:32;7.05;;;3.60;;
72791;SDS011;60907;53.268;8.764;2022-08-03T02:42:58;4.13;;;3.72;;
72791;SDS011;60907;53.268;8.764;2022-08-03T02:45:25;6.60;;;3.40;;
72791;SDS011;60907;53.268;8.764;2022-08-03T02:47:52;7.72;;;4.20;;
72791;SDS011;60907;53.268;8.764;2022-08-03T02:50:21;5.22;;;3.60;;
72791;SDS011;60907;53.268;8.764;2022-08-03T02:52:47;6.35;;;3.58;;
72791;SDS011;60907;53.268;8.764;2022-08-03T02:55:13;5.18;;;3.80;;
72791;SDS011;60907;53.268;8.764;2022-08-03T03:00:06;7.23;;;4.13;;
72791;SDS011;60907;53.268;8.764;2022-08-03T03:02:32;5.70;;;3.70;;
72791;SDS011;60907;53.268;8.764;2022-08-03T03:04:58;5.75;;;3.50;;
72791;SDS011;60907;53.268;8.764;2022-08-03T03:07:23;6.10;;;4.43;;
72791;SDS011;60907;53.268;8.764;2022-08-03T03:09:50;6.38;;;4.50;;
72791;SDS011;60907;53.268;8.764;2022-08-03T03:12:15;5.63;;;3.95;;
72791;SDS011;60907;53.268;8.764;2022-08-03T03:14:41;6.80;;;3.67;;
72791;SDS011;60907;53.268;8.764;2022-08-03T03:17:07;5.60;;;3.95;;
72791;SDS011;60907;53.268;8.764;2022-08-03T03:19:33;5.45;;;4.05;;
72791;SDS011;60907;53.268;8.764;2022-08-03T03:21:59;6.18;;;4.25;;
72791;SDS011;60907;53.268;8.764;2022-08-03T03:24:26;7.25;;;4.40;;
72791;SDS011;60907;53.268;8.764;2022-08-03T03:26:53;7.30;;;3.85;;
72791;SDS011;60907;53.268;8.764;2022-08-03T03:29:18;4.68;;;4.00;;
72791;SDS011;60907;53.268;8.764;2022-08-03T03:31:44;5.18;;;3.78;;
72791;SDS011;60907;53.268;8.764;2022-08-03T03:34:09;5.55;;;4.15;;
72791;SDS011;60907;53.268;8.764;2022-08-03T03:36:35;5.65;;;4.38;;
72791;SDS011;60907;53.268;8.764;2022-08-03T03:39:00;7.63;;;4.33;;
72791;SDS011;60907;53.268;8.764;2022-08-03T03:41:26;5.38;;;4.15;;
72791;SDS011;60907;53.268;8.764;2022-08-03T03:43:51;4.60;;;3.40;;
72791;SDS011;60907;53.268;8.764;2022-08-03T03:46:17;4.90;;;3.80;;
72791;SDS011;60907;53.268;8.764;2022-08-03T03:48:43;8.55;;;3.78;;
72791;SDS011;60907;53.268;8.764;2022-08-03T03:51:08;5.22;;;3.47;;
72791;SDS011;60907;53.268;8.764;2022-08-03T03:53:34;5.00;;;3.67;;
72791;SDS011;60907;53.268;8.764;2022-08-03T03:55:59;4.40;;;3.47;;
72791;SDS011;60907;53.268;8.764;2022-08-03T03:58:24;5.60;;;3.40;;
72791;SDS011;60907;53.268;8.764;2022-08-03T04:00:50;5.70;;;3.80;;
72791;SDS011;60907;53.268;8.764;2022-08-03T04:03:17;5.63;;;3.80;;
72791;SDS011;60907;53.268;8.764;2022-08-03T04:05:43;4.20;;;2.90;;
72791;SDS011;60907;53.268;8.764;2022-08-03T04:08:27;4.50;;;3.50;;
72791;SDS011;60907;53.268;8.764;2022-08-03T04:13:51;5.00;;;3.72;;
72791;SDS011;60907;53.268;8.764;2022-08-03T04:16:21;5.75;;;3.97;;
72791;SDS011;60907;53.268;8.764;2022-08-03T04:18:53;6.40;;;3.92;;
72791;SDS011;60907;53.268;8.764;2022-08-03T04:21:21;6.53;;;3.42;;
72791;SDS011;60907;53.268;8.764;2022-08-03T04:23:48;5.10;;;3.65;;
72791;SDS011;60907;53.268;8.764;2022-08-03T04:26:17;6.35;;;4.22;;
72791;SDS011;60907;53.268;8.764;2022-08-03T04:28:45;4.18;;;3.53;;
72791;SDS011;60907;53.268;8.764;2022-08-03T04:31:11;5.47;;;3.95;;
72791;SDS011;60907;53.268;8.764;2022-08-03T04:33:37;8.20;;;3.72;;
72791;SDS011;60907;53.268;8.764;2022-08-03T04:36:04;7.22;;;4.07;;
72791;SDS011;60907;53.268;8.764;2022-08-03T04:38:31;4.20;;;3.78;;
72791;SDS011;60907;53.268;8.764;2022-08-03T04:41:00;7.47;;;4.70;;
72791;SDS011;60907;53.268;8.764;2022-08-03T04:43:26;5.25;;;3.95;;
72791;SDS011;60907;53.268;8.764;2022-08-03T04:45:52;8.80;;;4.60;;
72791;SDS011;60907;53.268;8.764;2022-08-03T04:48:18;9.73;;;4.57;;
72791;SDS011;60907;53.268;8.764;2022-08-03T04:50:44;8.45;;;4.78;;
72791;SDS011;60907;53.268;8.764;2022-08-03T04:53:10;5.80;;;4.28;;
72791;SDS011;60907;53.268;8.764;2022-08-03T04:55:36;9.05;;;4.50;;
72791;SDS011;60907;53.268;8.764;2022-08-03T04:58:02;6.75;;;4.40;;
72791;SDS011;60907;53.268;8.764;2022-08-03T05:00:27;8.45;;;4.40;;
72791;SDS011;60907;53.268;8.764;2022-08-03T05:02:53;7.65;;;4.65;;
72791;SDS011;60907;53.268;8.764;2022-08-03T05:05:19;9.55;;;4.45;;
72791;SDS011;60907;53.268;8.764;2022-08-03T05:07:45;6.80;;;4.53;;
72791;SDS011;60907;53.268;8.764;2022-08-03T05:10:11;6.63;;;4.70;;
72791;SDS011;60907;53.268;8.764;2022-08-03T05:12:37;6.75;;;4.32;;
72791;SDS011;60907;53.268;8.764;2022-08-03T05:15:03;8.52;;;4.70;;
72791;SDS011;60907;53.268;8.764;2022-08-03T05:17:29;7.07;;;4.70;;
72791;SDS011;60907;53.268;8.764;2022-08-03T05:19:54;7.95;;;4.72;;
72791;SDS011;60907;53.268;8.764;2022-08-03T05:22:20;6.75;;;4.20;;
72791;SDS011;60907;53.268;8.764;2022-08-03T05:24:46;6.35;;;4.35;;
72791;SDS011;60907;53.268;8.764;2022-08-03T05:27:11;6.35;;;3.92;;
72791;SDS011;60907;53.268;8.764;2022-08-03T05:29:43;7.85;;;4.35;;
72791;SDS011;60907;53.268;8.764;2022-08-03T05:32:09;7.35;;;4.13;;
72791;SDS011;60907;53.268;8.764;2022-08-03T05:34:35;7.03;;;4.85;;
72791;SDS011;60907;53.268;8.764;2022-08-03T05:37:00;7.88;;;4.80;;
72791;SDS011;60907;53.268;8.764;2022-08-03T05:39:26;7.63;;;4.97;;
72791;SDS011;60907;53.268;8.764;2022-08-03T05:41:51;8.95;;;5.22;;
72791;SDS011;60907;53.268;8.764;2022-08-03T05:44:17;5.80;;;4.13;;
72791;SDS011;60907;53.268;8.764;2022-08-03T05:46:42;9.67;;;5.27;;
72791;SDS011;60907;53.268;8.764;2022-08-03T05:49:08;7.20;;;4.60;;
72791;SDS011;60907;53.268;8.764;2022-08-03T05:51:33;6.90;;;5.00;;
72791;SDS011;60907;53.268;8.764;2022-08-03T05:53:59;7.07;;;4.38;;
72791;SDS011;60907;53.268;8.764;2022-08-03T05:56:24;6.80;;;5.57;;
72791;SDS011;60907;53.268;8.764;2022-08-03T05:58:50;5.85;;;4.85;;
72791;SDS011;60907;53.268;8.764;2022-08-03T06:01:17;6.78;;;4.95;;
72791;SDS011;60907;53.268;8.764;2022-08-03T06:03:43;7.53;;;4.60;;
72791;SDS011;60907;53.268;8.764;2022-08-03T06:06:09;8.30;;;4.47;;
72791;SDS011;60907;53.268;8.764;2022-08-03T06:08:35;5.72;;;4.82;;
72791;SDS011;60907;53.268;8.764;2022-08-03T06:11:01;6.47;;;4.68;;
72791;SDS011;60907;53.268;8.764;2022-08-03T06:13:27;6.93;;;4.38;;
72791;SDS011;60907;53.268;8.764;2022-08-03T06:15:52;6.38;;;4.07;;
72791;SDS011;60907;53.268;8.764;2022-08-03T06:18:17;5.97;;;4.30;;
72791;SDS011;60907;53.268;8.764;2022-08-03T06:20:43;6.80;;;4.18;;
72791;SDS011;60907;53.268;8.764;2022-08-03T06:23:08;5.53;;;4.25;;
72791;SDS011;60907;53.268;8.764;2022-08-03T06:25:33;7.90;;;3.70;;
72791;SDS011;60907;53.268;8.764;2022-08-03T06:27:59;6.20;;;3.72;;
72791;SDS011;60907;53.268;8.764;2022-08-03T06:30:25;6.07;;;3.45;;
72791;SDS011;60907;53.268;8.764;2022-08-03T06:32:50;6.28;;;3.00;;
72791;SDS011;60907;53.268;8.764;2022-08-03T06:35:15;4.73;;;3.07;;
72791;SDS011;60907;53.268;8.764;2022-08-03T06:37:44;5.35;;;2.95;;
72791;SDS011;60907;53.268;8.764;2022-08-03T06:40:12;6.13;;;3.13;;
72791;SDS011;60907;53.268;8.764;2022-08-03T06:42:40;5.13;;;3.00;;
72791;SDS011;60907;53.268;8.764;2022-08-03T06:45:06;5.32;;;2.53;;
72791;SDS011;60907;53.268;8.764;2022-08-03T06:49:58;5.25;;;2.15;;
72791;SDS011;60907;53.268;8.764;2022-08-03T06:52:24;5.10;;;2.38;;
72791;SDS011;60907;53.268;8.764;2022-08-03T06:54:49;6.83;;;2.20;;
72791;SDS011;60907;53.268;8.764;2022-08-03T06:57:14;5.50;;;2.00;;
72791;SDS011;60907;53.268;8.764;2022-08-03T06:59:40;5.75;;;2.03;;
72791;SDS011;60907;53.268;8.764;2022-08-03T07:02:06;2.65;;;2.00;;
72791;SDS011;60907;53.268;8.764;2022-08-03T07:04:31;7.10;;;3.47;;
72791;SDS011;60907;53.268;8.764;2022-08-03T07:06:57;7.45;;;2.30;;
72791;SDS011;60907;53.268;8.764;2022-08-03T07:09:22;5.13;;;2.17;;
72791;SDS011;60907;53.268;8.764;2022-08-03T07:11:48;3.65;;;1.90;;
72791;SDS011;60907;53.268;8.764;2022-08-03T07:14:13;4.00;;;2.08;;
72791;SDS011;60907;53.268;8.764;2022-08-03T07:16:39;5.67;;;1.93;;
72791;SDS011;60907;53.268;8.764;2022-08-03T07:19:04;5.68;;;2.08;;
72791;SDS011;60907;53.268;8.764;2022-08-03T07:21:30;5.38;;;2.30;;
72791;SDS011;60907;53.268;8.764;2022-08-03T07:23:55;4.87;;;2.07;;
72791;SDS011;60907;53.268;8.764;2022-08-03T07:26:20;5.80;;;1.97;;
72791;SDS011;60907;53.268;8.764;2022-08-03T07:28:46;7.35;;;2.22;;
72791;SDS011;60907;53.268;8.764;2022-08-03T07:31:11;5.73;;;2.23;;
72791;SDS011;60907;53.268;8.764;2022-08-03T07:33:37;6.07;;;2.30;;
72791;SDS011;60907;53.268;8.764;2022-08-03T07:36:02;3.72;;;1.95;;
72791;SDS011;60907;53.268;8.764;2022-08-03T07:38:28;4.88;;;2.33;;
72791;SDS011;60907;53.268;8.764;2022-08-03T07:40:54;7.05;;;2.33;;
72791;SDS011;60907;53.268;8.764;2022-08-03T07:43:19;5.50;;;2.55;;
72791;SDS011;60907;53.268;8.764;2022-08-03T07:45:44;6.28;;;2.40;;
72791;SDS011;60907;53.268;8.764;2022-08-03T07:48:10;3.67;;;2.33;;
72791;SDS011;60907;53.268;8.764;2022-08-03T07:50:35;5.90;;;2.65;;
72791;SDS011;60907;53.268;8.764;2022-08-03T07:53:01;4.77;;;2.40;;
72791;SDS011;60907;53.268;8.764;2022-08-03T07:55:26;4.72;;;2.90;;
72791;SDS011;60907;53.268;8.764;2022-08-03T07:58:02;6.95;;;3.20;;
72791;SDS011;60907;53.268;8.764;2022-08-03T08:00:29;3.42;;;2.40;;
72791;SDS011;60907;53.268;8.764;2022-08-03T08:02:55;7.57;;;3.55;;
72791;SDS011;60907;53.268;8.764;2022-08-03T08:05:20;5.72;;;3.13;;
72791;SDS011;60907;53.268;8.764;2022-08-03T08:07:46;3.83;;;2.42;;
72791;SDS011;60907;53.268;8.764;2022-08-03T08:10:11;6.43;;;2.63;;
72791;SDS011;60907;53.268;8.764;2022-08-03T08:12:37;4.22;;;2.63;;
72791;SDS011;60907;53.268;8.764;2022-08-03T08:15:04;5.20;;;2.67;;
72791;SDS011;60907;53.268;8.764;2022-08-03T08:17:30;6.75;;;2.60;;
72791;SDS011;60907;53.268;8.764;2022-08-03T08:19:55;5.72;;;2.60;;
72791;SDS011;60907;53.268;8.764;2022-08-03T08:22:21;4.82;;;2.65;;
72791;SDS011;60907;53.268;8.764;2022-08-03T08:24:47;3.78;;;2.33;;
72791;SDS011;60907;53.268;8.764;2022-08-03T08:27:13;6.75;;;2.28;;
72791;SDS011;60907;53.268;8.764;2022-08-03T08:29:39;4.95;;;2.42;;
72791;SDS011;60907;53.268;8.764;2022-08-03T08:32:04;3.70;;;2.13;;
72791;SDS011;60907;53.268;8.764;2022-08-03T08:34:30;4.38;;;2.55;;
72791;SDS011;60907;53.268;8.764;2022-08-03T08:36:55;4.43;;;2.07;;
72791;SDS011;60907;53.268;8.764;2022-08-03T08:39:20;8.52;;;2.28;;
72791;SDS011;60907;53.268;8.764;2022-08-03T08:41:49;7.75;;;2.45;;
72791;SDS011;60907;53.268;8.764;2022-08-03T08:44:15;4.05;;;1.88;;
72791;SDS011;60907;53.268;8.764;2022-08-03T08:46:40;5.20;;;2.47;;
72791;SDS011;60907;53.268;8.764;2022-08-03T08:49:06;4.30;;;1.80;;
72791;SDS011;60907;53.268;8.764;2022-08-03T08:51:34;2.30;;;2.10;;
72791;SDS011;60907;53.268;8.764;2022-08-03T08:54:01;4.18;;;2.08;;
72791;SDS011;60907;53.268;8.764;2022-08-03T08:56:31;4.90;;;2.22;;
72791;SDS011;60907;53.268;8.764;2022-08-03T08:58:57;4.35;;;1.83;;
72791;SDS011;60907;53.268;8.764;2022-08-03T09:01:24;4.95;;;2.35;;
72791;SDS011;60907;53.268;8.764;2022-08-03T09:03:50;6.32;;;1.90;;
72791;SDS011;60907;53.268;8.764;2022-08-03T09:06:18;3.63;;;1.85;;
72791;SDS011;60907;53.268;8.764;2022-08-03T09:08:44;3.42;;;2.35;;
72791;SDS011;60907;53.268;8.764;2022-08-03T09:11:09;6.00;;;1.93;;
72791;SDS011;60907;53.268;8.764;2022-08-03T09:13:34;3.72;;;2.17;;
72791;SDS011;60907;53.268;8.764;2022-08-03T09:16:10;6.07;;;2.58;;
72791;SDS011;60907;53.268;8.764;2022-08-03T09:18:50;5.78;;;1.83;;
72791;SDS011;60907;53.268;8.764;2022-08-03T09:21:24;7.53;;;2.22;;
72791;SDS011;60907;53.268;8.764;2022-08-03T09:23:52;4.05;;;2.30;;
72791;SDS011;60907;53.268;8.764;2022-08-03T09:28:55;4.03;;;1.85;;
72791;SDS011;60907;53.268;8.764;2022-08-03T09:31:28;2.78;;;1.73;;
72791;SDS011;60907;53.268;8.764;2022-08-03T09:33:55;3.58;;;2.50;;
72791;SDS011;60907;53.268;8.764;2022-08-03T09:39:20;3.75;;;2.35;;
72791;SDS011;60907;53.268;8.764;2022-08-03T09:42:03;4.90;;;2.55;;
72791;SDS011;60907;53.268;8.764;2022-08-03T09:44:34;4.70;;;2.35;;
72791;SDS011;60907;53.268;8.764;2022-08-03T09:47:00;7.78;;;2.25;;
72791;SDS011;60907;53.268;8.764;2022-08-03T09:49:26;6.65;;;2.53;;
72791;SDS011;60907;53.268;8.764;2022-08-03T09:51:52;7.82;;;2.42;;
72791;SDS011;60907;53.268;8.764;2022-08-03T09:54:30;3.22;;;1.88;;
72791;SDS011;60907;53.268;8.764;2022-08-03T09:56:57;3.83;;;2.10;;
72791;SDS011;60907;53.268;8.764;2022-08-03T09:59:24;4.65;;;2.03;;
72791;SDS011;60907;53.268;8.764;2022-08-03T10:01:50;3.50;;;1.92;;
72791;SDS011;60907;53.268;8.764;2022-08-03T10:04:16;7.82;;;2.38;;
72791;SDS011;60907;53.268;8.764;2022-08-03T10:06:45;2.97;;;1.92;;
72791;SDS011;60907;53.268;8.764;2022-08-03T10:09:26;6.35;;;2.33;;
72791;SDS011;60907;53.268;8.764;2022-08-03T10:11:52;5.73;;;2.13;;
72791;SDS011;60907;53.268;8.764;2022-08-03T10:14:17;5.10;;;2.25;;
72791;SDS011;60907;53.268;8.764;2022-08-03T10:16:43;2.75;;;1.58;;
72791;SDS011;60907;53.268;8.764;2022-08-03T10:19:09;5.10;;;1.80;;
72791;SDS011;60907;53.268;8.764;2022-08-03T10:21:39;5.50;;;2.00;;
72791;SDS011;60907;53.268;8.764;2022-08-03T10:24:07;4.65;;;2.30;;
72791;SDS011;60907;53.268;8.764;2022-08-03T10:26:35;3.65;;;1.67;;
72791;SDS011;60907;53.268;8.764;2022-08-03T10:29:04;5.25;;;1.98;;
72791;SDS011;60907;53.268;8.764;2022-08-03T10:31:43;10.00;;;2.50;;
72791;SDS011;60907;53.268;8.764;2022-08-03T10:34:14;4.10;;;1.88;;
72791;SDS011;60907;53.268;8.764;2022-08-03T10:36:43;4.70;;;1.88;;
72791;SDS011;60907;53.268;8.764;2022-08-03T10:39:09;5.28;;;2.22;;
72791;SDS011;60907;53.268;8.764;2022-08-03T10:41:35;7.05;;;2.10;;
72791;SDS011;60907;53.268;8.764;2022-08-03T10:44:10;7.15;;;2.33;;
72791;SDS011;60907;53.268;8.764;2022-08-03T10:46:39;5.32;;;2.75;;
72791;SDS011;60907;53.268;8.764;2022-08-03T10:49:06;5.18;;;2.08;;
72791;SDS011;60907;53.268;8.764;2022-08-03T10:51:32;3.70;;;1.75;;
72791;SDS011;60907;53.268;8.764;2022-08-03T10:53:58;4.32;;;1.83;;
72791;SDS011;60907;53.268;8.764;2022-08-03T10:59:14;4.55;;;1.70;;
72791;SDS011;60907;53.268;8.764;2022-08-03T11:01:50;10.13;;;2.30;;
72791;SDS011;60907;53.268;8.764;2022-08-03T11:04:18;4.50;;;2.08;;
72791;SDS011;60907;53.268;8.764;2022-08-03T11:06:44;5.18;;;2.03;;
72791;SDS011;60907;53.268;8.764;2022-08-03T11:11:41;4.05;;;2.10;;
72791;SDS011;60907;53.268;8.764;2022-08-03T11:16:36;4.83;;;2.00;;
72791;SDS011;60907;53.268;8.764;2022-08-03T11:19:08;4.90;;;1.83;;
72791;SDS011;60907;53.268;8.764;2022-08-03T11:27:27;5.38;;;1.83;;
72791;SDS011;60907;53.268;8.764;2022-08-03T11:35:08;3.47;;;1.65;;
72791;SDS011;60907;53.268;8.764;2022-08-03T11:37:34;5.03;;;1.60;;
72791;SDS011;60907;53.268;8.764;2022-08-03T11:40:00;9.32;;;2.13;;
72791;SDS011;60907;53.268;8.764;2022-08-03T11:47:22;4.32;;;1.83;;
72791;SDS011;60907;53.268;8.764;2022-08-03T11:49:52;5.53;;;1.95;;
72791;SDS011;60907;53.268;8.764;2022-08-03T11:52:19;5.68;;;1.52;;
72791;SDS011;60907;53.268;8.764;2022-08-03T11:54:44;4.45;;;2.08;;
72791;SDS011;60907;53.268;8.764;2022-08-03T11:57:10;6.00;;;1.60;;
72791;SDS011;60907;53.268;8.764;2022-08-03T11:59:36;5.35;;;1.70;;
72791;SDS011;60907;53.268;8.764;2022-08-03T12:02:06;4.40;;;1.80;;
72791;SDS011;60907;53.268;8.764;2022-08-03T12:04:47;3.15;;;1.60;;
72791;SDS011;60907;53.268;8.764;2022-08-03T12:07:16;4.47;;;1.80;;
72791;SDS011;60907;53.268;8.764;2022-08-03T12:09:42;6.03;;;1.40;;
72791;SDS011;60907;53.268;8.764;2022-08-03T12:12:08;6.00;;;1.60;;
72791;SDS011;60907;53.268;8.764;2022-08-03T12:14:33;3.35;;;1.40;;
72791;SDS011;60907;53.268;8.764;2022-08-03T12:16:59;3.95;;;1.55;;
72791;SDS011;60907;53.268;8.764;2022-08-03T12:19:24;3.83;;;2.15;;
72791;SDS011;60907;53.268;8.764;2022-08-03T12:21:50;9.13;;;1.90;;
72791;SDS011;60907;53.268;8.764;2022-08-03T12:24:15;6.25;;;1.50;;
72791;SDS011;60907;53.268;8.764;2022-08-03T12:26:45;5.28;;;1.70;;
72791;SDS011;60907;53.268;8.764;2022-08-03T12:29:18;7.45;;;1.67;;
72791;SDS011;60907;53.268;8.764;2022-08-03T12:31:47;5.75;;;1.83;;
72791;SDS011;60907;53.268;8.764;2022-08-03T12:34:13;6.63;;;1.98;;
72791;SDS011;60907;53.268;8.764;2022-08-03T12:36:48;4.85;;;1.90;;
72791;SDS011;60907;53.268;8.764;2022-08-03T12:39:15;5.10;;;1.45;;
72791;SDS011;60907;53.268;8.764;2022-08-03T12:41:40;5.55;;;1.90;;
72791;SDS011;60907;53.268;8.764;2022-08-03T12:44:07;4.90;;;1.50;;
72791;SDS011;60907;53.268;8.764;2022-08-03T12:51:29;8.88;;;1.83;;
72791;SDS011;60907;53.268;8.764;2022-08-03T12:53:56;9.10;;;2.55;;
72791;SDS011;60907;53.268;8.764;2022-08-03T12:56:22;7.38;;;1.60;;
72791;SDS011;60907;53.268;8.764;2022-08-03T12:58:48;3.78;;;1.50;;
72791;SDS011;60907;53.268;8.764;2022-08-03T13:01:17;4.90;;;1.50;;
72791;SDS011;60907;53.268;8.764;2022-08-03T13:03:46;3.67;;;1.75;;
72791;SDS011;60907;53.268;8.764;2022-08-03T13:06:13;3.65;;;1.58;;
72791;SDS011;60907;53.268;8.764;2022-08-03T13:08:40;4.40;;;1.50;;
72791;SDS011;60907;53.268;8.764;2022-08-03T13:13:44;3.95;;;1.63;;
72791;SDS011;60907;53.268;8.764;2022-08-03T13:16:10;4.50;;;1.70;;
72791;SDS011;60907;53.268;8.764;2022-08-03T13:18:35;4.00;;;1.53;;
72791;SDS011;60907;53.268;8.764;2022-08-03T13:21:01;7.35;;;1.70;;
72791;SDS011;60907;53.268;8.764;2022-08-03T13:23:26;4.95;;;1.25;;
72791;SDS011;60907;53.268;8.764;2022-08-03T13:25:52;6.65;;;2.20;;
72791;SDS011;60907;53.268;8.764;2022-08-03T13:28:18;4.10;;;1.60;;
72791;SDS011;60907;53.268;8.764;2022-08-03T13:30:43;6.40;;;1.30;;
72791;SDS011;60907;53.268;8.764;2022-08-03T13:33:08;13.50;;;2.22;;
72791;SDS011;60907;53.268;8.764;2022-08-03T13:35:34;4.95;;;1.23;;
72791;SDS011;60907;53.268;8.764;2022-08-03T13:37:59;3.63;;;1.33;;
72791;SDS011;60907;53.268;8.764;2022-08-03T13:40:25;3.57;;;1.53;;
72791;SDS011;60907;53.268;8.764;2022-08-03T13:42:50;4.77;;;1.20;;
72791;SDS011;60907;53.268;8.764;2022-08-03T13:45:15;5.40;;;1.13;;
72791;SDS011;60907;53.268;8.764;2022-08-03T13:47:41;3.90;;;1.15;;
72791;SDS011;60907;53.268;8.764;2022-08-03T13:50:06;5.57;;;1.08;;
72791;SDS011;60907;53.268;8.764;2022-08-03T13:52:33;6.75;;;1.20;;
72791;SDS011;60907;53.268;8.764;2022-08-03T13:54:59;4.50;;;1.08;;
72791;SDS011;60907;53.268;8.764;2022-08-03T13:57:25;3.92;;;1.40;;
72791;SDS011;60907;53.268;8.764;2022-08-03T13:59:50;3.90;;;1.20;;
72791;SDS011;60907;53.268;8.764;2022-08-03T14:02:16;4.97;;;1.38;;
72791;SDS011;60907;53.268;8.764;2022-08-03T14:04:41;3.90;;;1.00;;
72791;SDS011;60907;53.268;8.764;2022-08-03T14:07:07;3.97;;;1.55;;
72791;SDS011;60907;53.268;8.764;2022-08-03T14:09:32;4.23;;;1.10;;
72791;SDS011;60907;53.268;8.764;2022-08-03T14:11:58;4.85;;;1.40;;
72791;SDS011;60907;53.268;8.764;2022-08-03T14:16:49;5.90;;;1.37;;
72791;SDS011;60907;53.268;8.764;2022-08-03T14:19:15;4.28;;;1.52;;
72791;SDS011;60907;53.268;8.764;2022-08-03T14:21:40;3.42;;;1.63;;
72791;SDS011;60907;53.268;8.764;2022-08-03T14:24:06;4.28;;;1.33;;
72791;SDS011;60907;53.268;8.764;2022-08-03T14:26:31;2.45;;;1.42;;
72791;SDS011;60907;53.268;8.764;2022-08-03T14:28:57;7.93;;;1.73;;
72791;SDS011;60907;53.268;8.764;2022-08-03T14:31:22;7.65;;;1.42;;
72791;SDS011;60907;53.268;8.764;2022-08-03T14:33:48;4.22;;;1.52;;
72791;SDS011;60907;53.268;8.764;2022-08-03T14:36:13;5.43;;;1.60;;
72791;SDS011;60907;53.268;8.764;2022-08-03T14:38:39;5.50;;;1.38;;
72791;SDS011;60907;53.268;8.764;2022-08-03T14:41:04;4.50;;;1.55;;
72791;SDS011;60907;53.268;8.764;2022-08-03T14:43:30;4.00;;;1.60;;
72791;SDS011;60907;53.268;8.764;2022-08-03T14:45:55;5.70;;;1.63;;
72791;SDS011;60907;53.268;8.764;2022-08-03T14:48:21;4.15;;;2.20;;
72791;SDS011;60907;53.268;8.764;2022-08-03T14:50:48;4.68;;;1.20;;
72791;SDS011;60907;53.268;8.764;2022-08-03T14:53:13;6.00;;;1.40;;
72791;SDS011;60907;53.268;8.764;2022-08-03T14:55:41;4.00;;;2.03;;
72791;SDS011;60907;53.268;8.764;2022-08-03T14:58:07;4.13;;;1.75;;
72791;SDS011;60907;53.268;8.764;2022-08-03T15:00:32;3.75;;;1.67;;
72791;SDS011;60907;53.268;8.764;2022-08-03T15:02:59;4.07;;;1.60;;
72791;SDS011;60907;53.268;8.764;2022-08-03T15:05:24;5.30;;;1.50;;
72791;SDS011;60907;53.268;8.764;2022-08-03T15:07:50;5.05;;;1.85;;
72791;SDS011;60907;53.268;8.764;2022-08-03T15:10:15;3.40;;;1.25;;
72791;SDS011;60907;53.268;8.764;2022-08-03T15:12:41;5.28;;;1.67;;
72791;SDS011;60907;53.268;8.764;2022-08-03T15:15:06;4.15;;;1.50;;
72791;SDS011;60907;53.268;8.764;2022-08-03T15:17:32;5.28;;;1.65;;
72791;SDS011;60907;53.268;8.764;2022-08-03T15:19:57;5.65;;;1.98;;
72791;SDS011;60907;53.268;8.764;2022-08-03T15:22:23;10.67;;;1.70;;
72791;SDS011;60907;53.268;8.764;2022-08-03T15:24:48;14.07;;;2.47;;
72791;SDS011;60907;53.268;8.764;2022-08-03T15:27:14;7.55;;;1.55;;
72791;SDS011;60907;53.268;8.764;2022-08-03T15:29:39;6.88;;;1.83;;
72791;SDS011;60907;53.268;8.764;2022-08-03T15:32:05;6.45;;;1.77;;
72791;SDS011;60907;53.268;8.764;2022-08-03T15:34:30;6.20;;;1.60;;
72791;SDS011;60907;53.268;8.764;2022-08-03T15:36:56;6.78;;;1.85;;
72791;SDS011;60907;53.268;8.764;2022-08-03T15:39:21;8.20;;;1.60;;
72791;SDS011;60907;53.268;8.764;2022-08-03T15:41:46;2.23;;;1.07;;
72791;SDS011;60907;53.268;8.764;2022-08-03T15:44:12;16.52;;;2.47;;
72791;SDS011;60907;53.268;8.764;2022-08-03T15:46:37;5.38;;;1.67;;
72791;SDS011;60907;53.268;8.764;2022-08-03T15:49:03;4.05;;;1.55;;
72791;SDS011;60907;53.268;8.764;2022-08-03T15:51:28;9.32;;;2.15;;